Portada
Imágenes satélite Pronóstico 10 díasClimaPredicción Marítima Ciclones Rayo AeropuertosFAQ Noticias Acerca
El tiempo : Europa África América del Norte América del Sur Asia Australia-Oceanía Otros
Idiomas Contacto

Madrid, España

Aeropuerto de Madrid-Barajas

latitud: 40-27N, longitud: 003-33W, altitud: 609 m


METAR: LEMD 061200Z 20003KT CAVOK 14/M04 Q1030 NOSIG
TAF: LEMD 061100Z 0612/0718 VRB04KT CAVOK TX20/0716Z TN01/0707Z

Hora: 13:30 (12:30 UTC)

Observación

El informe se hizo hace 30 minutos, a las 12:00 UTC
Viento 3 kt del sur-suroeste
Temperatura 14°C
Humedad 28%
Presión 1030 hPa
Visibilidad 10 km o más
sin nubes por debajo de 1500 m y sin presencia de cumulonimbus.

Cambiar las unidades

Pronóstico

El informe se hizo hace 1 hora y 30 minutos, a las 11:00 UTC
Pronóstico válido del 06 a las 12 UTC al 07 a las 18 UTC
Viento 4 kt con dirección variable
Visibilidad 10 km o más
sin nubes por debajo de 1500 m y sin presencia de cumulonimbus.
La información que se ofrece en estas páginas está sujeta a una cláusula de exención de responsabilidad
El tiempo : Europa África América del Norte América del Sur Asia Australia-Oceanía Otros
Imágenes satélite Pronóstico 10 díasClimaPredicción Marítima Ciclones Rayo AeropuertosFAQ Idiomas Contacto Noticias Acerca